Time;durP1;ratioP1;P1;durP2;ratioP2;P2;SDS_P1;SDS_P2;PMS_P1;PMS_P2;Temp;Humidity;BMP_temperature;BMP_pressure;BME280_temperature;BME280_humidity;BME280_pressure;Samples;Min_cycle;Max_cycle;Signal;HPM_P1;HPM_P2
2022/12/04 00:00:02;;;;;;;35.30;22.88;;;;;;;-0.64;100.00;102324.06;5011077;28;20302;-48
2022/12/04 00:02:30;;;;;;;36.53;24.63;;;;;;;-0.61;100.00;102321.56;4996407;28;20189;-46
2022/12/04 00:04:55;;;;;;;34.33;24.35;;;;;;;-0.59;nan;102314.59;4998892;28;20180;-46
2022/12/04 00:07:21;;;;;;;37.35;24.48;;;;;;;-0.71;100.00;102330.00;4993555;28;20631;-47
2022/12/04 00:09:46;;;;;;;37.00;23.17;;;;;;;-0.71;100.00;102322.97;4996806;28;20243;-46
2022/12/04 00:12:12;;;;;;;40.38;24.25;;;;;;;-0.67;100.00;102316.09;4999820;28;20243;-46
2022/12/04 00:14:37;;;;;;;34.80;23.60;;;;;;;-0.58;100.00;102326.03;5003514;28;20187;-47
2022/12/04 00:17:03;;;;;;;34.67;24.02;;;;;;;-0.65;100.00;102333.72;5000991;28;20197;-46
2022/12/04 00:19:28;;;;;;;33.50;22.88;;;;;;;-0.62;100.00;102318.00;4998869;28;20224;-48
2022/12/04 00:21:54;;;;;;;37.35;25.40;;;;;;;-0.68;100.00;102332.72;5000660;28;20192;-47
2022/12/04 00:24:19;;;;;;;37.20;24.38;;;;;;;-0.72;100.00;102330.81;4997914;28;20194;-46
2022/12/04 00:26:45;;;;;;;37.55;23.30;;;;;;;-0.62;100.00;102325.00;4997328;28;20272;-48
2022/12/04 00:29:10;;;;;;;37.05;23.58;;;;;;;-0.70;100.00;102326.50;4998004;28;20256;-47
2022/12/04 00:31:36;;;;;;;38.47;26.40;;;;;;;-0.67;100.00;102331.88;4998859;28;20217;-45
2022/12/04 00:34:01;;;;;;;39.97;24.63;;;;;;;-0.69;100.00;102329.19;4997351;28;20184;-46
2022/12/04 00:36:28;;;;;;;34.20;23.10;;;;;;;-0.65;100.00;102340.72;4996469;28;20193;-46
2022/12/04 00:38:54;;;;;;;37.83;22.85;;;;;;;-0.62;100.00;102328.53;4997125;28;20227;-46
2022/12/04 00:41:23;;;;;;;38.35;23.88;;;;;;;-0.62;100.00;102332.91;4992500;28;20272;-46
2022/12/04 00:43:48;;;;;;;38.47;23.40;;;;;;;-0.73;100.00;102331.69;5003574;28;20197;-47
2022/12/04 00:46:14;;;;;;;38.67;23.88;;;;;;;-0.68;100.00;102332.72;5001761;28;20597;-46
2022/12/04 00:48:40;;;;;;;37.47;23.98;;;;;;;-0.72;100.00;102331.75;5013586;28;20208;-48
2022/12/04 00:51:10;;;;;;;41.25;23.73;;;;;;;-0.65;100.00;102327.56;5001638;28;20192;-46
2022/12/04 00:53:35;;;;;;;35.72;23.08;;;;;;;-0.62;100.00;102325.00;5016624;28;20242;-47
2022/12/04 00:56:06;;;;;;;36.40;22.42;;;;;;;-0.72;100.00;102331.75;4999835;28;20188;-46
2022/12/04 00:58:32;;;;;;;36.55;22.88;;;;;;;-0.69;100.00;102331.81;5000643;28;20215;-46
2022/12/04 01:01:06;;;;;;;36.05;23.27;;;;;;;-0.63;100.00;102336.41;5005457;28;20174;-47
2022/12/04 01:03:32;;;;;;;40.47;24.50;;;;;;;-0.63;100.00;102324.13;5004290;28;20205;-45
2022/12/04 01:05:58;;;;;;;37.30;23.58;;;;;;;-0.68;100.00;102325.72;5001364;28;20185;-46
2022/12/04 01:08:24;;;;;;;38.20;23.63;;;;;;;-0.57;100.00;102315.50;5003050;28;20194;-46
2022/12/04 01:10:49;;;;;;;33.83;21.88;;;;;;;-0.53;100.00;102320.03;5002050;28;20184;-46
2022/12/04 01:13:15;;;;;;;39.80;24.38;;;;;;;-0.53;100.00;102317.41;4999238;28;20185;-46
2022/12/04 01:15:42;;;;;;;36.47;22.65;;;;;;;-0.51;100.00;102320.97;4999048;28;20582;-45
2022/12/04 01:18:10;;;;;;;39.75;23.90;;;;;;;-0.55;100.00;102308.56;5003520;28;20185;-47
2022/12/04 01:20:36;;;;;;;36.97;23.48;;;;;;;-0.56;100.00;102306.78;5000420;28;20818;-47
2022/12/04 01:23:02;;;;;;;37.97;24.15;;;;;;;-0.58;100.00;102321.63;5000131;28;20236;-46
2022/12/04 01:25:27;;;;;;;38.60;23.80;;;;;;;-0.58;100.00;102319.00;5000909;28;20181;-47
2022/12/04 01:27:53;;;;;;;38.90;23.15;;;;;;;-0.59;100.00;102316.31;5012132;28;20291;-45
2022/12/04 01:30:19;;;;;;;38.47;23.60;;;;;;;-0.61;100.00;102318.91;4998855;28;20217;-46
2022/12/04 01:32:44;;;;;;;38.60;23.42;;;;;;;-0.58;100.00;102316.38;5004209;28;20181;-47
2022/12/04 01:35:10;;;;;;;41.35;24.13;;;;;;;-0.53;100.00;102313.88;4996789;28;20267;-46
2022/12/04 01:37:35;;;;;;;37.28;24.83;;;;;;;-0.46;100.00;102311.50;5001187;28;20271;-47
2022/12/04 01:40:01;;;;;;;35.10;23.60;;;;;;;-0.49;100.00;102307.88;5000414;28;20578;-44
2022/12/04 01:42:26;;;;;;;39.65;23.63;;;;;;;-0.52;100.00;102305.16;4997922;28;20189;-46
2022/12/04 01:45:32;;;;;;;40.65;23.38;;;;;;;-0.49;100.00;102311.38;4999735;28;20834;-46
2022/12/04 01:48:09;;;;;;;34.63;22.83;;;;;;;-0.50;100.00;102324.53;4999190;28;20261;-46
2022/12/04 01:50:35;;;;;;;36.15;22.58;;;;;;;-0.46;100.00;102314.13;5004104;28;20191;-46
2022/12/04 01:53:01;;;;;;;34.30;22.52;;;;;;;-0.48;100.00;102310.56;4998061;28;20186;-46
2022/12/04 01:55:26;;;;;;;37.22;23.05;;;;;;;-0.44;100.00;102309.81;5002143;28;20280;-46
2022/12/04 01:57:52;;;;;;;36.03;23.60;;;;;;;-0.46;100.00;102314.13;5001042;28;20566;-47
2022/12/04 02:00:17;;;;;;;37.95;22.90;;;;;;;-0.47;100.00;102314.06;4999919;28;20206;-44
2022/12/04 02:02:45;;;;;;;33.00;22.13;;;;;;;-0.46;100.00;102308.88;4999032;28;20266;-47
2022/12/04 02:05:15;;;;;;;38.67;22.83;;;;;;;-0.48;100.00;102310.56;5001672;28;20190;-45
2022/12/04 02:07:43;;;;;;;37.13;23.02;;;;;;;-0.47;100.00;102303.53;5000522;28;20623;-46
2022/12/04 02:10:10;;;;;;;38.63;22.67;;;;;;;-0.43;100.00;102301.06;5000606;28;20302;-46
2022/12/04 02:12:54;;;;;;;35.05;23.02;;;;;;;-0.43;100.00;102294.91;4999708;28;20193;-47
2022/12/04 02:15:40;;;;;;;36.92;22.10;;;;;;;-0.40;100.00;102312.53;4996134;28;20200;-46
2022/12/04 02:18:20;;;;;;;34.15;22.45;;;;;;;-0.35;100.00;102305.66;5001486;28;20197;-46
2022/12/04 02:21:15;;;;;;;38.17;23.35;;;;;;;-0.35;100.00;102288.13;4997339;28;21007;-45
2022/12/04 02:24:00;;;;;;;37.55;22.08;;;;;;;-0.36;100.00;102299.50;4999320;28;20213;-47
2022/12/04 02:27:00;;;;;;;35.63;23.85;;;;;;;-0.32;100.00;102284.69;5002260;28;20221;-47
2022/12/04 02:29:34;;;;;;;36.47;21.75;;;;;;;-0.31;100.00;102283.84;5012981;28;20308;-45
2022/12/04 02:32:18;;;;;;;36.63;23.10;;;;;;;-0.33;100.00;102275.91;5001542;28;20185;-46
2022/12/04 02:34:44;;;;;;;36.00;23.10;;;;;;;-0.37;100.00;102276.66;4997435;28;20188;-46
2022/12/04 02:37:17;;;;;;;36.58;23.00;;;;;;;-0.34;100.00;102278.50;4997797;28;20193;-45
2022/12/04 02:40:01;;;;;;;36.40;22.67;;;;;;;-0.30;100.00;102280.38;5001212;28;20576;-47
2022/12/04 02:42:39;;;;;;;37.10;22.98;;;;;;;-0.30;100.00;102285.63;4999424;28;20346;-48
2022/12/04 02:45:10;;;;;;;40.42;23.10;;;;;;;-0.36;100.00;102280.19;4999676;28;20196;-47
2022/12/04 02:47:40;;;;;;;38.03;23.55;;;;;;;-0.33;100.00;102288.16;4998250;28;20195;-47
2022/12/04 02:50:10;;;;;;;39.67;23.45;;;;;;;-0.31;100.00;102284.72;4999599;28;20279;-47
2022/12/04 02:53:02;;;;;;;39.88;24.05;;;;;;;-0.27;100.00;102285.72;5014704;28;20201;-48
2022/12/04 02:55:56;;;;;;;43.53;23.67;;;;;;;-0.32;100.00;102279.44;4994390;28;20979;-47
2022/12/04 02:58:29;;;;;;;37.85;24.05;;;;;;;-0.30;100.00;102285.63;4999077;28;20220;-47
2022/12/04 03:00:58;;;;;;;42.50;24.45;;;;;;;-0.30;100.00;102286.53;5000502;28;20188;-48
2022/12/04 03:03:27;;;;;;;38.83;24.65;;;;;;;-0.27;100.00;102276.06;4999545;28;20256;-47
2022/12/04 03:05:56;;;;;;;39.35;23.80;;;;;;;-0.26;100.00;102269.97;4995887;28;20185;-45
2022/12/04 03:08:27;;;;;;;39.30;23.77;;;;;;;-0.19;100.00;102275.41;4995550;28;20264;-45
2022/12/04 03:10:57;;;;;;;42.85;24.23;;;;;;;-0.22;100.00;102286.72;5000710;28;20235;-47
2022/12/04 03:13:31;;;;;;;40.45;24.35;;;;;;;-0.23;100.00;102272.69;4999601;28;20189;-47
2022/12/04 03:16:06;;;;;;;38.38;23.20;;;;;;;-0.18;100.00;102283.34;5001973;28;20267;-47
2022/12/04 03:18:38;;;;;;;38.28;23.08;;;;;;;-0.15;100.00;102290.44;4996953;28;20292;-47
2022/12/04 03:21:09;;;;;;;44.97;24.20;;;;;;;-0.16;100.00;102291.31;5003968;28;20204;-46
2022/12/04 03:23:41;;;;;;;39.92;23.25;;;;;;;-0.18;100.00;102285.09;4997640;28;20243;-46
2022/12/04 03:26:36;;;;;;;39.28;23.65;;;;;;;-0.18;100.00;102288.59;4998562;28;20223;-47
2022/12/04 03:29:14;;;;;;;39.72;22.65;;;;;;;-0.14;100.00;102285.22;4998714;28;20370;-47
2022/12/04 03:31:55;;;;;;;38.13;22.35;;;;;;;-0.13;100.00;102284.41;4998484;28;20675;-47
2022/12/04 03:34:52;;;;;;;39.83;22.92;;;;;;;-0.15;100.00;102293.06;5002285;28;20540;-46
2022/12/04 03:37:26;;;;;;;39.22;23.08;;;;;;;-0.15;100.00;102280.81;5007053;28;20205;-47
2022/12/04 03:39:59;;;;;;;38.47;23.75;;;;;;;-0.10;100.00;102287.09;4996282;28;20836;-47
2022/12/04 03:42:35;;;;;;;41.20;24.35;;;;;;;-0.12;100.00;102301.97;4997980;28;20291;-48
2022/12/04 03:45:14;;;;;;;38.00;22.67;;;;;;;-0.01;100.00;102299.66;4998511;28;20264;-46
2022/12/04 03:47:52;;;;;;;39.33;23.92;;;;;;;-0.04;100.00;102289.03;4994094;28;20185;-47
2022/12/04 03:50:36;;;;;;;43.72;24.77;;;;;;;-0.01;100.00;102292.63;4997711;28;20225;-43
2022/12/04 03:53:17;;;;;;;35.28;22.48;;;;;;;-0.05;100.00;102297.78;4995258;28;20180;-47
2022/12/04 03:55:55;;;;;;;38.33;23.50;;;;;;;-0.06;100.00;102290.72;4996171;28;20314;-47
2022/12/04 03:58:27;;;;;;;39.92;23.83;;;;;;;-0.06;100.00;102290.72;4996997;28;20264;-47
2022/12/04 04:00:55;;;;;;;46.45;24.50;;;;;;;-0.05;100.00;102297.78;4993464;28;20185;-49
2022/12/04 04:03:29;;;;;;;41.45;23.55;;;;;;;0.01;100.00;102297.06;5002434;28;20287;-45
2022/12/04 04:06:01;;;;;;;38.22;22.90;;;;;;;-0.01;100.00;102299.66;5000003;28;20218;-49
2022/12/04 04:08:33;;;;;;;37.22;22.05;;;;;;;0.05;100.00;102291.03;5000932;28;20205;-48
2022/12/04 04:11:12;;;;;;;36.70;23.05;;;;;;;0.09;100.00;102295.53;4999195;28;20191;-46
2022/12/04 04:25:12;;;;;;;43.28;24.40;;;;;;;0.01;100.00;102276.00;4997588;28;20201;-48
2022/12/04 04:27:38;;;;;;;38.33;23.60;;;;;;;0.11;100.00;102275.38;5001810;28;20223;-46
2022/12/04 04:30:08;;;;;;;38.28;23.50;;;;;;;0.07;100.00;102282.31;4997936;28;20248;-48
2022/12/04 04:32:58;;;;;;;40.95;24.65;;;;;;;0.08;100.00;102281.47;4996153;28;20262;-46
2022/12/04 04:35:32;;;;;;;38.53;23.35;;;;;;;0.13;100.00;102284.22;4994867;28;20263;-49
2022/12/04 04:38:16;;;;;;;34.40;21.58;;;;;;;0.17;100.00;102276.44;4999321;28;20651;-47
2022/12/04 04:40:55;;;;;;;36.33;22.90;;;;;;;0.18;100.00;102280.00;4996715;28;20200;-46
2022/12/04 04:43:30;;;;;;;38.15;23.38;;;;;;;0.26;100.00;102273.16;4996637;28;20209;-49
2022/12/04 04:46:01;;;;;;;35.75;22.90;;;;;;;0.26;100.00;102275.78;4997624;28;20675;-48
2022/12/04 04:48:33;;;;;;;31.45;21.20;;;;;;;0.26;100.00;102278.44;4998585;28;20204;-47
2022/12/04 04:51:01;;;;;;;32.85;20.23;;;;;;;0.39;100.00;102263.84;4993342;28;20201;-46
2022/12/04 04:53:34;;;;;;;28.58;19.73;;;;;;;0.41;100.00;102270.06;4999397;28;20279;-47
2022/12/04 04:56:01;;;;;;;30.88;21.10;;;;;;;0.38;100.00;102275.25;4994928;28;20283;-48
2022/12/04 04:58:26;;;;;;;31.05;20.40;;;;;;;0.37;100.00;102260.28;4995202;28;20271;-46
2022/12/04 05:01:04;;;;;;;32.08;20.75;;;;;;;0.39;100.00;102258.56;5001371;28;20181;-46
2022/12/04 05:03:31;;;;;;;29.40;19.33;;;;;;;0.38;100.00;102262.97;4995901;28;20213;-46
2022/12/04 05:05:57;;;;;;;26.55;18.88;;;;;;;0.40;100.00;102266.53;4997665;28;20275;-48
2022/12/04 05:08:22;;;;;;;29.38;20.38;;;;;;;0.46;100.00;102268.47;4999173;28;20281;-46
2022/12/04 05:10:48;;;;;;;30.02;19.50;;;;;;;0.46;100.00;102265.81;4998990;28;20192;-47
2022/12/04 05:13:15;;;;;;;27.10;19.02;;;;;;;0.47;100.00;102269.34;4996183;28;20642;-47
2022/12/04 05:15:41;;;;;;;27.63;19.08;;;;;;;0.52;100.00;102275.63;5002961;28;20280;-46
2022/12/04 05:18:07;;;;;;;26.15;18.88;;;;;;;0.54;100.00;102272.16;4997589;28;20667;-48
2022/12/04 05:20:36;;;;;;;28.92;19.38;;;;;;;0.58;100.00;102267.88;4997306;28;20193;-47
2022/12/04 05:23:02;;;;;;;25.65;18.25;;;;;;;0.59;100.00;102277.56;4995943;28;20232;-48
2022/12/04 05:25:27;;;;;;;25.67;18.02;;;;;;;0.60;100.00;102285.50;4998904;28;20562;-45
2022/12/04 05:27:53;;;;;;;26.13;18.40;;;;;;;0.65;100.00;102283.00;4990922;28;20197;-43
2022/12/04 05:30:19;;;;;;;27.25;18.42;;;;;;;0.63;100.00;102274.16;5007937;28;20285;-44
2022/12/04 05:32:45;;;;;;;29.10;19.63;;;;;;;0.67;100.00;102288.31;4993435;28;20224;-44
2022/12/04 05:35:11;;;;;;;26.42;18.60;;;;;;;0.67;100.00;102276.00;4993237;28;20218;-46
2022/12/04 05:37:38;;;;;;;26.10;18.83;;;;;;;0.72;100.00;102278.75;4993411;28;20177;-44
2022/12/04 05:40:05;;;;;;;25.30;18.17;;;;;;;0.70;100.00;102280.47;4993463;28;20197;-45
2022/12/04 05:42:31;;;;;;;26.05;17.92;;;;;;;0.71;100.00;102282.28;4992998;28;20178;-43
2022/12/04 05:44:56;;;;;;;24.73;17.98;;;;;;;0.73;100.00;102288.47;4993219;28;20204;-44
2022/12/04 05:47:22;;;;;;;27.27;18.35;;;;;;;0.73;100.00;102281.44;4993191;28;20774;-44
2022/12/04 05:49:48;;;;;;;24.90;17.88;;;;;;;0.73;100.00;102286.72;4993090;28;20290;-43
2022/12/04 05:52:13;;;;;;;24.98;18.00;;;;;;;0.77;100.00;102285.97;4993149;28;20158;-44
2022/12/04 05:54:39;;;;;;;25.33;18.23;;;;;;;0.79;100.00;102296.56;4993115;28;20154;-44
2022/12/04 05:57:05;;;;;;;22.42;16.50;;;;;;;0.82;100.00;102292.22;4993075;28;20174;-43
2022/12/04 05:59:31;;;;;;;23.30;17.52;;;;;;;0.82;100.00;102294.88;4992804;28;20296;-45
2022/12/04 06:01:56;;;;;;;25.08;17.58;;;;;;;0.84;100.00;102289.66;5008044;28;20170;-45
2022/12/04 06:04:22;;;;;;;24.48;17.38;;;;;;;0.86;100.00;102293.22;4999359;28;20204;-49
2022/12/04 06:06:47;;;;;;;23.48;17.85;;;;;;;0.86;100.00;102292.34;4997655;28;20680;-49
2022/12/04 06:09:13;;;;;;;21.70;17.05;;;;;;;0.91;100.00;102295.97;4998123;28;20271;-49
2022/12/04 06:11:40;;;;;;;22.10;16.75;;;;;;;0.99;100.00;102291.78;4999933;28;20193;-49
2022/12/04 06:14:09;;;;;;;26.95;18.25;;;;;;;1.00;100.00;102299.72;4994927;28;20233;-48
2022/12/04 06:16:40;;;;;;;24.13;17.77;;;;;;;0.97;100.00;102290.84;4998161;28;20595;-47
2022/12/04 06:19:10;;;;;;;24.70;17.73;;;;;;;0.96;100.00;102292.59;5005424;28;20587;-48
2022/12/04 06:21:38;;;;;;;24.70;17.92;;;;;;;1.02;100.00;102291.84;4995084;28;20216;-50
2022/12/04 06:24:04;;;;;;;24.08;17.85;;;;;;;0.97;100.00;102298.75;5004915;28;20685;-49
2022/12/04 06:26:30;;;;;;;24.02;18.08;;;;;;;0.98;100.00;102298.81;5003345;28;20293;-47
2022/12/04 06:28:58;;;;;;;29.15;18.83;;;;;;;1.00;100.00;102289.16;5005008;28;20779;-49
2022/12/04 06:31:25;;;;;;;27.67;19.27;;;;;;;0.99;100.00;102300.59;5001162;28;20280;-48
2022/12/04 06:33:55;;;;;;;25.52;18.70;;;;;;;1.06;100.00;102298.09;5002534;28;20224;-47
2022/12/04 06:36:22;;;;;;;25.83;18.63;;;;;;;1.07;100.00;102299.88;4999240;28;20197;-46
2022/12/04 06:38:49;;;;;;;26.90;19.63;;;;;;;1.08;100.00;102299.03;5000503;28;20367;-50
2022/12/04 06:41:18;;;;;;;26.52;19.20;;;;;;;1.05;100.00;102293.66;5005478;28;20250;-47
2022/12/04 06:43:44;;;;;;;26.67;19.15;;;;;;;1.08;100.00;102288.47;4998866;28;20696;-46
2022/12/04 06:46:15;;;;;;;25.55;18.85;;;;;;;1.09;100.00;102290.25;4999342;28;20663;-47
2022/12/04 06:48:41;;;;;;;24.67;18.88;;;;;;;1.10;100.00;102295.56;5001728;28;20213;-46
2022/12/04 06:51:11;;;;;;;26.52;19.77;;;;;;;1.14;100.00;102301.81;5000685;28;20222;-48
2022/12/04 06:53:37;;;;;;;27.13;19.38;;;;;;;1.14;100.00;102289.50;4994625;28;20208;-47
2022/12/04 06:56:05;;;;;;;29.92;20.85;;;;;;;1.12;100.00;102293.84;4996505;28;20653;-46
2022/12/04 06:58:31;;;;;;;27.13;19.92;;;;;;;1.18;100.00;102298.38;5001273;28;20298;-49
2022/12/04 07:00:57;;;;;;;29.45;21.13;;;;;;;1.18;100.00;102296.66;4995358;28;20191;-48
2022/12/04 07:03:23;;;;;;;29.25;20.35;;;;;;;1.17;100.00;102302.78;4998517;28;20205;-47
2022/12/04 07:05:49;;;;;;;30.20;20.65;;;;;;;1.20;100.00;102307.22;4996723;28;20184;-47
2022/12/04 07:08:15;;;;;;;31.17;22.52;;;;;;;1.26;100.00;102303.84;4993773;28;20193;-47
2022/12/04 07:10:41;;;;;;;29.52;22.75;;;;;;;1.24;100.00;102304.69;4997615;28;20610;-46
2022/12/04 07:13:08;;;;;;;32.50;22.38;;;;;;;1.29;100.00;102304.84;5002269;28;20212;-46
2022/12/04 07:15:35;;;;;;;32.95;22.95;;;;;;;1.30;100.00;102311.00;5003104;28;20177;-47
2022/12/04 07:18:01;;;;;;;32.92;22.73;;;;;;;1.32;100.00;102301.38;5000880;28;20284;-46
2022/12/04 07:20:26;;;;;;;33.95;24.52;;;;;;;1.33;100.00;102300.50;5000650;28;20308;-48
2022/12/04 07:22:52;;;;;;;35.00;23.90;;;;;;;1.32;100.00;102304.88;5000790;28;20396;-47
2022/12/04 07:25:18;;;;;;;34.78;25.23;;;;;;;1.34;100.00;102311.09;5000754;28;20191;-49
2022/12/04 07:27:44;;;;;;;33.67;24.60;;;;;;;1.35;100.00;102306.72;4999767;28;20686;-49
2022/12/04 07:30:10;;;;;;;36.63;24.58;;;;;;;1.42;100.00;102317.47;5000371;28;20319;-47
2022/12/04 07:32:36;;;;;;;42.67;25.95;;;;;;;1.40;100.00;102307.69;5012962;28;20270;-47
2022/12/04 07:35:02;;;;;;;37.67;26.90;;;;;;;1.41;100.00;102306.84;4998510;28;20327;-47
2022/12/04 07:37:28;;;;;;;36.30;26.23;;;;;;;1.41;100.00;102309.50;4999261;28;20220;-49
2022/12/04 07:39:53;;;;;;;38.90;26.08;;;;;;;1.43;100.00;102305.16;4995870;28;20228;-49
2022/12/04 07:42:19;;;;;;;36.60;25.38;;;;;;;1.43;100.00;102311.31;4996780;28;20217;-47
2022/12/04 07:44:45;;;;;;;36.42;25.75;;;;;;;1.46;100.00;102310.47;4998396;28;20205;-48
2022/12/04 07:47:11;;;;;;;38.35;25.52;;;;;;;1.49;100.00;102310.56;4991555;28;20667;-49
2022/12/04 07:49:37;;;;;;;38.35;25.73;;;;;;;1.49;100.00;102321.13;4996177;28;20205;-48
2022/12/04 07:52:03;;;;;;;37.33;25.00;;;;;;;1.52;100.00;102313.28;5001968;28;20188;-47
2022/12/04 07:54:29;;;;;;;36.38;24.98;;;;;;;1.55;100.00;102313.34;5006288;28;20188;-48
2022/12/04 07:56:54;;;;;;;38.55;25.42;;;;;;;1.55;100.00;102304.53;4997571;28;20660;-47
2022/12/04 07:59:20;;;;;;;33.15;24.33;;;;;;;1.56;100.00;102317.78;5000413;28;20267;-46
2022/12/04 08:01:45;;;;;;;35.00;24.38;;;;;;;1.63;100.00;102313.50;5000436;28;20190;-46
2022/12/04 08:04:11;;;;;;;36.60;24.45;;;;;;;1.59;100.00;102304.63;4997595;28;20284;-47
2022/12/04 08:06:37;;;;;;;36.08;24.23;;;;;;;1.62;100.00;102310.00;5000433;28;20185;-46
2022/12/04 08:09:06;;;;;;;35.67;24.38;;;;;;;1.65;100.00;102311.81;4999709;28;20319;-45
2022/12/04 08:11:32;;;;;;;38.03;25.35;;;;;;;1.65;100.00;102314.44;4999715;28;20684;-47
2022/12/04 08:14:04;;;;;;;37.45;25.23;;;;;;;1.70;100.00;102306.63;4998830;28;20181;-45
2022/12/04 08:16:31;;;;;;;37.13;24.48;;;;;;;1.71;100.00;102303.13;4996814;28;20327;-47
2022/12/04 08:18:58;;;;;;;38.78;24.65;;;;;;;1.74;100.00;102314.63;4997608;28;20240;-47
2022/12/04 08:21:26;;;;;;;40.00;25.73;;;;;;;1.74;100.00;102313.75;4994592;28;20181;-48
2022/12/04 08:23:54;;;;;;;36.40;25.63;;;;;;;1.76;100.00;102315.56;5012438;28;20216;-46
2022/12/04 08:26:21;;;;;;;36.42;24.67;;;;;;;1.79;100.00;102315.66;4994648;28;20192;-45
2022/12/04 08:28:47;;;;;;;36.35;23.45;;;;;;;1.83;100.00;102308.66;4995556;28;20323;-42
2022/12/04 08:31:14;;;;;;;35.85;23.85;;;;;;;1.86;100.00;102314.03;4999225;28;20195;-43
2022/12/04 08:33:41;;;;;;;38.03;25.60;;;;;;;1.88;100.00;102309.69;5007058;28;20189;-43
2022/12/04 08:36:09;;;;;;;36.58;24.38;;;;;;;1.92;100.00;102308.84;4999599;28;20193;-42
2022/12/04 08:38:34;;;;;;;37.78;24.98;;;;;;;1.94;100.00;102309.78;5011790;28;20240;-42
2022/12/04 08:41:01;;;;;;;36.75;25.73;;;;;;;1.92;100.00;102316.78;5002318;28;20226;-43
2022/12/04 08:43:27;;;;;;;37.28;24.17;;;;;;;1.92;100.00;102316.78;5003348;28;20216;-42
2022/12/04 08:45:55;;;;;;;37.75;25.52;;;;;;;1.97;100.00;102322.19;4997385;28;20189;-44
2022/12/04 08:48:21;;;;;;;34.70;24.05;;;;;;;2.03;100.00;102319.66;4995344;28;20533;-42
2022/12/04 08:50:46;;;;;;;35.00;23.48;;;;;;;2.17;100.00;102312.91;4997982;28;20256;-42
2022/12/04 08:53:12;;;;;;;33.90;24.42;;;;;;;2.18;100.00;102312.03;4997538;28;20180;-43
2022/12/04 08:55:37;;;;;;;35.00;24.88;;;;;;;2.19;100.00;102310.31;4996882;28;20189;-42
2022/12/04 08:58:03;;;;;;;36.20;24.83;;;;;;;2.19;100.00;102313.84;4998315;28;20177;-43
2022/12/04 09:00:30;;;;;;;36.78;25.90;;;;;;;2.19;100.00;102310.31;5001083;28;20205;-43
2022/12/04 09:02:56;;;;;;;33.58;25.20;;;;;;;2.21;100.00;102308.59;4998123;28;20185;-41
2022/12/04 09:05:21;;;;;;;35.70;25.42;;;;;;;2.26;100.00;102302.50;5019480;28;20188;-43
2022/12/04 09:07:47;;;;;;;40.25;27.08;;;;;;;2.21;100.00;102322.69;4997464;28;20192;-42
2022/12/04 09:10:13;;;;;;;37.83;27.02;;;;;;;2.19;100.00;102319.13;5001089;28;20207;-43
2022/12/04 09:12:38;;;;;;;40.53;26.15;;;;;;;2.23;100.00;102325.34;4998759;28;20193;-42
2022/12/04 09:15:04;;;;;;;37.08;26.52;;;;;;;2.21;100.00;102329.75;5001596;28;20539;-43
2022/12/04 09:17:30;;;;;;;40.28;27.13;;;;;;;2.23;100.00;102330.63;5001756;28;20186;-43
2022/12/04 09:19:55;;;;;;;38.63;27.45;;;;;;;2.29;100.00;102325.47;5000582;28;20212;-42
2022/12/04 09:22:21;;;;;;;43.58;27.85;;;;;;;2.37;100.00;102328.28;5000823;28;20186;-44
2022/12/04 09:24:46;;;;;;;40.95;28.08;;;;;;;2.37;100.00;102326.53;4995955;28;20684;-43
2022/12/04 09:27:12;;;;;;;39.53;26.13;;;;;;;2.40;100.00;102317.75;5008001;28;20187;-42
2022/12/04 09:29:37;;;;;;;38.35;27.17;;;;;;;2.46;100.00;102328.47;5004846;28;20393;-44
2022/12/04 09:32:03;;;;;;;37.10;26.38;;;;;;;2.43;100.00;102313.44;5010630;28;20312;-45
2022/12/04 09:34:28;;;;;;;38.83;26.38;;;;;;;2.45;100.00;102322.28;5004725;28;20186;-43
2022/12/04 09:36:54;;;;;;;37.45;25.02;;;;;;;2.46;100.00;102320.53;4998831;28;20221;-45
2022/12/04 09:39:19;;;;;;;38.03;24.73;;;;;;;2.43;100.00;102323.13;5008327;28;20220;-44
2022/12/04 09:42:00;;;;;;;38.05;24.30;;;;;;;2.48;100.00;102319.69;4996561;28;20271;-47
2022/12/04 09:44:31;;;;;;;32.22;23.27;;;;;;;2.48;100.00;102313.50;5014088;28;20216;-50
2022/12/04 09:47:22;;;;;;;31.92;23.00;;;;;;;2.49;100.00;102320.56;5004071;28;20441;-49
2022/12/04 09:49:55;;;;;;;29.33;21.58;;;;;;;2.47;100.00;102315.28;5001907;28;20717;-49
2022/12/04 09:52:30;;;;;;;29.35;21.08;;;;;;;2.47;100.00;102312.63;4998033;28;20191;-47
2022/12/04 09:54:59;;;;;;;28.55;20.48;;;;;;;2.51;100.00;102324.13;4996776;28;20184;-47
2022/12/04 09:57:39;;;;;;;29.20;21.15;;;;;;;2.60;100.00;102312.84;5000369;28;20276;-47
2022/12/04 10:00:09;;;;;;;28.08;21.88;;;;;;;2.54;100.00;102316.28;5000361;28;20278;-48
2022/12/04 10:02:41;;;;;;;27.73;21.15;;;;;;;2.53;100.00;102319.78;4999428;28;20263;-47
2022/12/04 10:05:16;;;;;;;33.72;21.23;;;;;;;2.56;100.00;102309.28;5001827;28;20319;-47
2022/12/04 10:07:54;;;;;;;28.27;21.08;;;;;;;2.57;100.00;102315.44;5000347;28;20179;-48
2022/12/04 10:10:35;;;;;;;27.55;19.55;;;;;;;2.63;100.00;102316.44;4998668;28;20292;-48
2022/12/04 10:13:19;;;;;;;26.20;19.65;;;;;;;2.63;100.00;102310.28;5004466;28;20675;-46
2022/12/04 10:16:08;;;;;;;29.52;19.50;;;;;;;2.64;100.00;102314.69;5005665;28;20189;-47
2022/12/04 10:18:51;;;;;;;25.48;18.45;;;;;;;2.76;100.00;102304.34;4988768;28;20260;-47
2022/12/04 10:21:55;;;;;;;26.00;18.40;;;;;;;2.80;100.00;102306.16;4997683;28;20189;-47
2022/12/04 10:24:26;;;;;;;27.17;19.35;;;;;;;2.75;100.00;102304.28;4985112;28;20707;-46
2022/12/04 10:26:56;;;;;;;28.52;21.02;;;;;;;2.75;100.00;102304.28;5001057;28;20192;-46
2022/12/04 10:29:28;;;;;;;29.92;21.38;;;;;;;2.77;100.00;102303.44;4999714;28;20259;-48
2022/12/04 10:31:59;;;;;;;30.95;21.70;;;;;;;2.76;100.00;102303.44;5000528;28;20177;-47
2022/12/04 10:34:28;;;;;;;31.70;22.75;;;;;;;2.79;100.00;102301.72;4998494;28;20181;-46
2022/12/04 10:37:00;;;;;;;32.78;23.58;;;;;;;2.77;100.00;102286.69;4998749;28;20231;-48
2022/12/04 10:39:33;;;;;;;29.75;21.85;;;;;;;2.81;100.00;102294.72;4997045;28;20209;-47
2022/12/04 10:42:34;;;;;;;32.22;23.40;;;;;;;2.88;100.00;102288.66;4996332;28;20718;-47
2022/12/04 10:45:00;;;;;;;31.55;22.38;;;;;;;2.89;100.00;102289.56;5001164;28;20203;-48
2022/12/04 10:47:26;;;;;;;31.33;22.45;;;;;;;2.88;100.00;102286.00;4994477;28;20173;-47
2022/12/04 10:50:03;;;;;;;29.77;22.17;;;;;;;2.88;100.00;102279.81;4997628;28;20205;-47
2022/12/04 10:52:29;;;;;;;29.02;21.25;;;;;;;2.96;100.00;102286.13;4996044;28;20181;-48
2022/12/04 10:54:58;;;;;;;31.25;22.70;;;;;;;2.96;100.00;102274.66;4994666;28;20718;-48
2022/12/04 10:57:38;;;;;;;30.48;22.27;;;;;;;2.98;100.00;102267.66;5004479;28;20195;-47
2022/12/04 11:00:23;;;;;;;30.90;23.35;;;;;;;2.98;100.00;102275.59;4993505;28;20265;-48
2022/12/04 11:02:50;;;;;;;30.88;22.02;;;;;;;2.95;100.00;102267.56;4994344;28;20744;-50
2022/12/04 11:05:33;;;;;;;28.88;22.70;;;;;;;3.08;100.00;102262.53;4996498;28;20200;-47
2022/12/04 11:08:01;;;;;;;30.45;22.33;;;;;;;3.26;100.00;102258.38;4996318;28;20275;-48
2022/12/04 11:10:35;;;;;;;29.23;22.30;;;;;;;3.19;100.00;102249.44;4997990;28;20692;-48
2022/12/04 11:13:13;;;;;;;29.80;21.80;;;;;;;3.17;100.00;102258.22;4997950;28;20251;-49
2022/12/04 11:15:45;;;;;;;30.10;22.42;;;;;;;3.20;100.00;102263.56;4998373;28;20193;-49
2022/12/04 11:18:47;;;;;;;30.25;22.67;;;;;;;3.27;100.00;102265.44;4998055;28;20178;-47
2022/12/04 11:21:23;;;;;;;32.58;22.83;;;;;;;3.27;100.00;102253.06;5012753;28;20183;-48
2022/12/04 11:23:50;;;;;;;31.20;22.88;;;;;;;3.25;100.00;102265.41;4998333;28;20255;-49
2022/12/04 11:26:27;;;;;;;33.60;24.88;;;;;;;3.35;100.00;102254.97;4998641;28;20193;-48
2022/12/04 11:28:54;;;;;;;34.30;23.63;;;;;;;3.39;100.00;102246.16;4997167;28;20200;-48
2022/12/04 11:31:21;;;;;;;28.83;21.83;;;;;;;3.40;100.00;102247.97;4998302;28;20185;-47